Terminal Aerodrome Forecast
Issued by NWS Cleveland, OH

Home | Current Version | Previous Version | Graphics & Text | Print | Product List | Glossary On
Versions: 1 2 3 4 5 6 7 8 9 10 11 12 13 14 15 16 17 18 19 20 21 22
000
FTUS41 KCLE 311000 AAB
TAFCAK
TAF AMD
KCAK 311041Z 3111/0106 21008KT 5SM -SHRA BR BKN006 OVC025
     FM311400 22010KT 5SM -SHRA BR VCTS BKN006CB OVC015
     FM311800 22010KT P6SM VCSH SCT006 OVC015
     FM312200 23010KT P6SM OVC020=

USA.gov is the U.S. government's official web portal to all federal, state and local government web resources and services.